RUNWAY INFORMATION
Runway Length Width Elevation Displaced
Threshold
Heading | Runway Length Width Elevation Displaced
Threshold
Heading
15 5841 ft 98 ft 397 ft 0 ft 154 | 33 5841 ft 98 ft 340 ft 0 ft 334

 AIRPORT FREQUENCIES
Type APP Name APP Frequency 119.2 MHZ
Type GCA Name PRECISION Frequency 118.8 MHZ
Type TWR Name TWR Frequency 119.2 MHZ

 AIRPORT NEAR NAVIGATION AIDS
Type NDB Name Iasi Frequency 391 KHZ

 METAR AND TAF INFORMATION
METAR FOR LRIA
ADDS - METARS form results

(2224 UTC 22 January 2021)
Data provider http://aviationweather.gov/metar/data/
 
METAR text: LRIA 222200Z 09009KT CAVOK 01/00 Q1010
Conditions at: LRIA (IASI , RO) observed 2200 UTC 22 January 2021
Temperature: 1.0°C (34°F)
Dewpoint: 0.0°C (32°F) [RH = 93%]
Pressure (altimeter): 29.82 inches Hg (1010.0 mb)
Winds: from the E (90 degrees) at 10 MPH (9 knots; 4.6 m/s)
Visibility: 6 or more miles (10+ km)
Ceiling: ceiling and visibility are OK
Clouds: unknown
Weather: no significant weather observed at this time

METAR text: LRIA 222130Z 09009KT CAVOK 01/01 Q1010
Conditions at: LRIA (IASI , RO) observed 2130 UTC 22 January 2021
Temperature: 1.0°C (34°F)
Dewpoint: 1.0°C (34°F) [RH = 100%]
Pressure (altimeter): 29.82 inches Hg (1010.0 mb)
Winds: from the E (90 degrees) at 10 MPH (9 knots; 4.6 m/s)
Visibility: 6 or more miles (10+ km)
Ceiling: ceiling and visibility are OK
Clouds: unknown
Weather: no significant weather observed at this time

Forecast for: LRIA (IASI , RO)
Text: TAF LRIA 222000Z 2221/2306 09008KT CAVOK
Forecast period: 2100 to 2200 UTC 22 January 2021
Forecast type: FROM: standard forecast or significant change
Winds: from the E (90 degrees) at 9 MPH (8 knots; 4.1 m/s)
Visibility: 6 or more miles (10+ km)
Ceiling: unknown
Clouds: missing
Weather: NSW  (no significant weather)
Text: BECMG 2222/2300 3000 BR BKN005
Forecast period: 2200 UTC 22 January 2021 to 0600 UTC 23 January 2021
Forecast type: BECOMING: Conditions expected to become as follows by 0000 UTC 23 January 2021
Winds: from the E (90 degrees) at 9 MPH (8 knots; 4.1 m/s)
Visibility: 1.86 miles (2.99 km)
Ceiling: 500 feet AGL
Clouds: broken clouds at 500 feet AGL
Weather: BR  (mist)
Text: PROB40
Forecast period: 0000 to 0400 UTC 23 January 2021
Forecast type: TEMPORARY: The following changes expected for less than half the time period
Visibility: 0.50 miles (0.80 km)
Ceiling: 200 feet AGL
Clouds: overcast cloud deck at 200 feet AGL
Weather: FZFG  (freezing fog)



© 2013 - 2021, FlightSimLog.org - Powered by Virtual Airlines Manager